Time;durP1;ratioP1;P1;durP2;ratioP2;P2;SDS_P1;SDS_P2;PMS_P1;PMS_P2;Temp;Humidity;BMP_temperature;BMP_pressure;BME280_temperature;BME280_humidity;BME280_pressure;Samples;Min_cycle;Max_cycle;Signal;HPM_P1;HPM_P2
2022/08/15 00:02:17;;;;;;;9.40;6.33;;;;;;;22.93;58.52;99850.03;6017466;28;20049;-65
2022/08/15 00:05:15;;;;;;;9.77;6.78;;;;;;;22.82;58.70;99836.59;6018813;28;20109;-65
2022/08/15 00:08:11;;;;;;;9.80;7.00;;;;;;;22.89;58.88;99839.94;6021942;28;20034;-65
2022/08/15 00:11:11;;;;;;;9.52;6.70;;;;;;;22.87;58.34;99840.19;6008512;28;20031;-65
2022/08/15 00:14:11;;;;;;;11.55;6.88;;;;;;;22.72;58.78;99837.22;6020113;28;20064;-65
2022/08/15 00:17:09;;;;;;;8.55;6.60;;;;;;;22.89;58.70;99839.94;6016842;28;20430;-65
2022/08/15 00:20:06;;;;;;;12.13;6.75;;;;;;;22.58;59.13;99832.38;6021507;28;20106;-64
2022/08/15 00:23:02;;;;;;;10.43;6.30;;;;;;;22.38;59.31;99836.38;6017511;28;20049;-65
2022/08/15 00:25:59;;;;;;;9.73;6.73;;;;;;;22.34;59.57;99837.13;6017047;28;20030;-65
2022/08/15 00:28:54;;;;;;;12.35;6.65;;;;;;;22.31;60.52;99818.69;6021385;28;20295;-65
2022/08/15 00:31:53;;;;;;;9.27;6.38;;;;;;;22.44;60.84;99824.59;6016676;28;20038;-65
2022/08/15 00:34:49;;;;;;;9.10;6.03;;;;;;;22.49;60.50;99824.69;6016045;28;20075;-65
2022/08/15 00:37:44;;;;;;;11.77;7.25;;;;;;;22.56;59.94;99821.81;6021688;28;20740;-64
2022/08/15 00:43:58;;;;;;;11.20;7.25;;;;;;;22.23;59.97;99829.91;6012841;28;20019;-64
2022/08/15 00:46:59;;;;;;;10.65;7.35;;;;;;;22.13;60.61;99827.84;6017003;28;20069;-65
2022/08/15 00:49:54;;;;;;;10.13;6.72;;;;;;;22.08;60.77;99835.03;6019769;28;20679;-65
2022/08/15 00:52:49;;;;;;;12.13;6.77;;;;;;;22.13;60.09;99810.81;6020603;28;20038;-65
2022/08/15 00:55:45;;;;;;;9.27;6.70;;;;;;;22.04;60.81;99814.97;6018457;28;20030;-65
2022/08/15 00:58:42;;;;;;;10.55;6.65;;;;;;;22.21;61.39;99824.72;6015977;28;20117;-65
2022/08/15 01:01:38;;;;;;;8.70;6.50;;;;;;;22.40;59.86;99823.44;6011938;28;20088;-65
2022/08/15 01:04:36;;;;;;;10.48;6.90;;;;;;;22.22;60.08;99820.97;6034137;28;20072;-65
2022/08/15 01:07:31;;;;;;;10.93;7.30;;;;;;;22.33;60.83;99806.59;6021572;28;20050;-65
2022/08/15 01:10:27;;;;;;;10.00;6.43;;;;;;;22.29;60.16;99816.22;6016163;28;20697;-65
2022/08/15 01:13:22;;;;;;;8.82;6.22;;;;;;;21.80;61.72;99808.81;6015273;28;20042;-65
2022/08/15 01:16:18;;;;;;;13.00;6.60;;;;;;;21.36;63.66;99808.47;6020699;28;20633;-65
2022/08/15 01:19:22;;;;;;;10.15;7.00;;;;;;;21.01;64.99;99814.97;6018535;28;20038;-64
2022/08/15 01:22:38;;;;;;;10.60;6.97;;;;;;;20.72;66.39;99814.03;6020589;28;20109;-65
2022/08/15 01:26:06;;;;;;;10.02;6.90;;;;;;;20.51;67.56;99809.22;6020022;28;20042;-64
2022/08/15 01:29:02;;;;;;;12.20;6.55;;;;;;;20.22;69.16;99816.25;6024193;28;20474;-65
2022/08/15 01:31:58;;;;;;;14.75;7.45;;;;;;;20.50;68.72;99816.47;6021086;28;20089;-65
2022/08/15 01:34:53;;;;;;;10.40;7.03;;;;;;;20.82;67.29;99808.88;6024618;28;20128;-64
2022/08/15 01:37:50;;;;;;;11.33;7.60;;;;;;;20.41;68.28;99812.47;6021618;28;20062;-65
2022/08/15 01:40:58;;;;;;;9.85;7.07;;;;;;;20.12;69.74;99821.38;6023849;28;20392;-65
2022/08/15 01:44:15;;;;;;;8.88;6.50;;;;;;;19.81;70.77;99818.94;6019247;28;20071;-65
2022/08/15 01:47:17;;;;;;;13.82;7.35;;;;;;;19.83;71.91;99814.16;6031118;28;20497;-64
2022/08/15 01:50:29;;;;;;;9.95;7.47;;;;;;;20.76;68.40;99815.22;6022212;28;20029;-65
2022/08/15 01:53:33;;;;;;;11.30;7.35;;;;;;;20.06;69.38;99812.34;6024190;28;20042;-65
2022/08/15 01:56:33;;;;;;;11.20;7.68;;;;;;;19.84;70.69;99805.03;6022003;28;20037;-64
2022/08/15 01:59:29;;;;;;;11.20;7.35;;;;;;;20.07;69.92;99822.09;6019830;28;20046;-64
2022/08/15 02:02:25;;;;;;;12.17;7.47;;;;;;;19.95;70.06;99829.28;6021451;28;20437;-66
2022/08/15 02:05:21;;;;;;;11.30;7.05;;;;;;;19.69;71.18;99810.00;6022672;28;20144;-66
2022/08/15 02:08:16;;;;;;;10.60;6.93;;;;;;;20.34;69.90;99805.56;6024252;28;20404;-65
2022/08/15 02:11:16;;;;;;;9.10;6.68;;;;;;;20.43;70.04;99799.59;6023998;28;20063;-65
2022/08/15 02:14:11;;;;;;;11.25;6.97;;;;;;;20.82;66.98;99803.47;6017766;28;20423;-66
2022/08/15 02:17:09;;;;;;;11.23;7.40;;;;;;;20.95;66.85;99799.75;6024593;28;20044;-65
2022/08/15 02:20:05;;;;;;;10.82;7.13;;;;;;;21.00;67.33;99800.66;6016654;28;20035;-65
2022/08/15 02:23:00;;;;;;;13.30;7.15;;;;;;;21.15;67.01;99792.94;6021335;28;20057;-65
2022/08/15 02:25:55;;;;;;;10.03;7.10;;;;;;;21.27;65.35;99785.66;6022563;28;20041;-65
2022/08/15 02:28:51;;;;;;;12.87;7.47;;;;;;;21.41;65.98;99779.97;6021211;28;20757;-66
2022/08/15 02:31:46;;;;;;;10.43;7.00;;;;;;;21.16;66.85;99770.31;6023338;28;20073;-65
2022/08/15 02:34:45;;;;;;;11.15;7.15;;;;;;;21.38;65.62;99780.47;6034963;28;20314;-64
2022/08/15 02:37:41;;;;;;;14.18;7.05;;;;;;;20.91;66.29;99769.72;6024139;28;20424;-65
2022/08/15 02:40:36;;;;;;;10.63;6.93;;;;;;;20.40;67.81;99769.63;6020286;28;20038;-65
2022/08/15 02:43:31;;;;;;;11.53;7.47;;;;;;;20.01;69.37;99769.16;6022978;28;20077;-65
2022/08/15 02:46:29;;;;;;;12.40;6.93;;;;;;;19.72;70.55;99763.81;6023602;28;20475;-64
2022/08/15 02:49:24;;;;;;;9.88;6.57;;;;;;;19.83;70.44;99768.41;6017200;28;20042;-65
2022/08/15 02:52:21;;;;;;;11.27;7.93;;;;;;;19.62;71.49;99769.75;6023179;28;20026;-65
2022/08/15 02:55:18;;;;;;;11.07;6.93;;;;;;;19.60;72.07;99766.44;6015489;28;20096;-65
2022/08/15 02:58:16;;;;;;;9.65;7.20;;;;;;;20.10;71.15;99783.94;6018222;28;20038;-65
2022/08/15 03:01:12;;;;;;;12.85;7.28;;;;;;;20.40;70.04;99775.00;6021176;28;20532;-65
2022/08/15 03:04:13;;;;;;;10.63;7.38;;;;;;;20.61;68.98;99785.19;6019782;28;20132;-66
2022/08/15 03:07:09;;;;;;;13.32;7.80;;;;;;;20.29;67.89;99791.97;6023247;28;20038;-65
2022/08/15 03:10:05;;;;;;;13.38;7.53;;;;;;;20.36;68.54;99784.59;6020765;28;20493;-65
2022/08/15 03:13:06;;;;;;;10.13;6.97;;;;;;;20.28;68.03;99774.16;6023293;28;20045;-66
2022/08/15 03:16:03;;;;;;;10.05;7.20;;;;;;;20.43;67.73;99790.69;6022121;28;20037;-65
2022/08/15 03:18:58;;;;;;;9.38;6.82;;;;;;;20.21;67.65;99782.31;6018531;28;20086;-66
2022/08/15 03:21:53;;;;;;;10.33;6.90;;;;;;;20.39;67.67;99792.19;6018586;28;20422;-65
2022/08/15 03:24:49;;;;;;;12.38;6.57;;;;;;;20.42;66.71;99775.56;6018473;28;20026;-65
2022/08/15 03:27:44;;;;;;;9.83;7.00;;;;;;;20.13;67.84;99790.72;6021805;28;20046;-65
2022/08/15 03:30:39;;;;;;;10.07;7.47;;;;;;;19.86;68.93;99782.22;6017581;28;20169;-66
2022/08/15 03:33:37;;;;;;;11.70;7.03;;;;;;;19.85;69.27;99777.88;6022503;28;20042;-65
2022/08/15 03:36:32;;;;;;;11.15;7.30;;;;;;;19.85;69.21;99785.97;6019846;28;20494;-66
2022/08/15 03:39:28;;;;;;;9.80;6.87;;;;;;;19.85;69.51;99775.19;6022355;28;20035;-65
2022/08/15 03:42:25;;;;;;;11.93;7.93;;;;;;;19.78;69.42;99773.66;6014414;28;20053;-66
2022/08/15 03:45:21;;;;;;;10.75;7.07;;;;;;;19.82;69.39;99762.19;6020632;28;20474;-65
2022/08/15 03:48:21;;;;;;;9.18;6.93;;;;;;;19.95;68.90;99775.44;6022818;28;20037;-65
2022/08/15 03:51:18;;;;;;;10.75;6.70;;;;;;;19.90;69.24;99778.03;6018209;28;20034;-65
2022/08/15 03:54:14;;;;;;;13.57;7.57;;;;;;;19.83;69.36;99766.53;6021809;28;20485;-65
2022/08/15 03:57:09;;;;;;;9.43;6.90;;;;;;;19.82;69.36;99764.88;6022316;28;20042;-64
2022/08/15 04:00:07;;;;;;;10.10;6.80;;;;;;;19.81;69.04;99757.06;6019581;28;20033;-66
2022/08/15 04:03:07;;;;;;;13.10;7.80;;;;;;;19.67;69.46;99756.44;6022486;28;20096;-64
2022/08/15 04:06:07;;;;;;;12.35;6.68;;;;;;;19.87;69.36;99774.94;6013844;28;20042;-65
2022/08/15 04:09:02;;;;;;;12.77;6.93;;;;;;;19.86;69.02;99774.16;6016470;28;20030;-65
2022/08/15 04:11:58;;;;;;;8.87;5.77;;;;;;;20.18;68.42;99790.84;6021546;28;20050;-64
2022/08/15 04:14:54;;;;;;;10.57;6.95;;;;;;;20.22;68.33;99781.25;6021229;28;20361;-66
2022/08/15 04:17:51;;;;;;;9.00;6.73;;;;;;;20.17;67.78;99779.25;6021537;28;20033;-65
2022/08/15 04:20:47;;;;;;;9.95;6.75;;;;;;;20.24;67.69;99789.13;6025358;28;20038;-64
2022/08/15 04:23:46;;;;;;;11.27;6.70;;;;;;;20.12;68.00;99776.44;6025193;28;20057;-64
2022/08/15 04:26:41;;;;;;;10.60;6.90;;;;;;;20.19;68.26;99777.16;6021824;28;20093;-66
2022/08/15 04:29:36;;;;;;;9.87;6.60;;;;;;;20.22;67.88;99775.88;6017475;28;20034;-65
2022/08/15 04:32:32;;;;;;;12.57;7.30;;;;;;;20.17;67.84;99778.44;6020652;28;20052;-65
2022/08/15 04:35:27;;;;;;;11.48;7.50;;;;;;;20.10;68.35;99781.25;6020375;28;20401;-65
2022/08/15 04:38:23;;;;;;;11.03;6.30;;;;;;;20.25;67.77;99774.66;6018028;28;20067;-66
2022/08/15 04:41:19;;;;;;;8.50;6.53;;;;;;;20.39;67.28;99765.28;6020154;28;20124;-65
2022/08/15 04:44:14;;;;;;;9.43;6.50;;;;;;;20.49;66.96;99776.31;6017928;28;20423;-65
2022/08/15 04:47:09;;;;;;;9.57;6.63;;;;;;;20.57;66.45;99765.19;6017117;28;20043;-65
2022/08/15 04:50:05;;;;;;;12.43;6.90;;;;;;;20.70;66.52;99773.84;6010764;28;20466;-66
2022/08/15 04:53:01;;;;;;;10.80;6.95;;;;;;;20.92;65.74;99766.00;6016404;28;20030;-65
2022/08/15 04:55:57;;;;;;;9.10;6.55;;;;;;;21.14;65.46;99763.53;6016817;28;20106;-65
2022/08/15 04:58:53;;;;;;;10.35;7.25;;;;;;;20.80;65.73;99759.78;6022032;28;20521;-66
2022/08/15 05:01:48;;;;;;;9.67;6.53;;;;;;;21.08;65.31;99759.91;6017619;28;20115;-64
2022/08/15 05:04:43;;;;;;;11.57;6.97;;;;;;;21.26;64.72;99746.25;6019686;28;20034;-65
2022/08/15 05:07:38;;;;;;;10.53;6.83;;;;;;;21.21;64.72;99764.19;6025196;28;20045;-65
2022/08/15 05:10:34;;;;;;;11.00;6.33;;;;;;;21.08;65.19;99764.47;6025453;28;20037;-65
2022/08/15 05:13:32;;;;;;;8.95;6.20;;;;;;;21.15;65.16;99763.28;6022074;28;20069;-66
2022/08/15 05:16:27;;;;;;;10.75;6.82;;;;;;;21.05;65.38;99759.50;6011529;28;20043;-64
2022/08/15 05:19:22;;;;;;;9.40;6.63;;;;;;;21.09;65.03;99744.53;6026051;28;20050;-65
2022/08/15 05:22:18;;;;;;;9.43;6.40;;;;;;;21.14;64.81;99741.94;6019610;28;20447;-66
2022/08/15 05:25:13;;;;;;;8.77;6.50;;;;;;;21.17;65.07;99746.88;6019060;28;20299;-65
2022/08/15 05:28:10;;;;;;;10.23;6.87;;;;;;;21.34;64.15;99743.16;6024367;28;20297;-66
2022/08/15 05:31:07;;;;;;;10.75;6.47;;;;;;;21.37;64.31;99739.16;6020487;28;20038;-65
2022/08/15 05:34:03;;;;;;;11.02;7.03;;;;;;;21.43;64.33;99742.78;6025645;28;20045;-65
2022/08/15 05:36:59;;;;;;;11.00;6.80;;;;;;;21.76;63.86;99737.50;6020445;28;20030;-64
2022/08/15 05:39:55;;;;;;;9.75;6.20;;;;;;;21.99;62.74;99729.28;6021860;28;20092;-65
2022/08/15 05:42:57;;;;;;;9.98;6.55;;;;;;;22.08;62.44;99733.22;6021321;28;20030;-66
2022/08/15 05:46:00;;;;;;;13.55;7.22;;;;;;;22.09;62.59;99734.88;6018825;28;20030;-66
2022/08/15 05:49:03;;;;;;;10.93;6.82;;;;;;;22.20;62.24;99720.47;6026367;28;20030;-66
2022/08/15 05:52:04;;;;;;;8.52;6.45;;;;;;;22.46;61.43;99730.59;6036798;28;20145;-66
2022/08/15 05:55:21;;;;;;;9.32;6.25;;;;;;;22.29;61.76;99737.88;6020173;28;20125;-65
2022/08/15 05:58:44;;;;;;;10.00;6.40;;;;;;;22.41;61.18;99744.03;6016945;28;20038;-65
2022/08/15 06:01:49;;;;;;;12.13;7.07;;;;;;;22.43;60.82;99736.50;6018094;28;20109;-65
2022/08/15 06:05:19;;;;;;;8.07;5.70;;;;;;;22.43;61.43;99741.91;6037859;28;20751;-65
2022/08/15 06:08:18;;;;;;;10.20;6.55;;;;;;;22.47;61.03;99732.25;6007314;28;20137;-65
2022/08/15 06:11:22;;;;;;;9.20;6.25;;;;;;;22.58;60.75;99748.59;6019364;28;20036;-66
2022/08/15 06:14:26;;;;;;;10.25;6.57;;;;;;;22.35;61.50;99738.78;6018498;28;20065;-66
2022/08/15 06:17:28;;;;;;;11.15;6.72;;;;;;;22.47;61.23;99751.16;6016559;28;20031;-67
2022/08/15 06:20:36;;;;;;;11.05;6.78;;;;;;;22.58;60.95;99746.72;6020902;28;20802;-65
2022/08/15 06:23:34;;;;;;;10.13;7.00;;;;;;;22.71;60.46;99742.88;6021735;28;20437;-65
2022/08/15 06:26:36;;;;;;;10.55;6.75;;;;;;;22.47;60.81;99737.66;6011806;28;20034;-65
2022/08/15 06:29:52;;;;;;;10.45;7.07;;;;;;;22.58;60.72;99733.22;6037720;28;20043;-67
2022/08/15 06:32:55;;;;;;;11.00;7.70;;;;;;;22.45;60.60;99728.13;6017995;28;20031;-65
2022/08/15 06:36:05;;;;;;;12.48;7.00;;;;;;;22.52;61.11;99734.19;6012169;28;20481;-65
2022/08/15 06:39:11;;;;;;;12.82;7.40;;;;;;;22.47;60.71;99732.25;6023733;28;20104;-65
2022/08/15 06:42:23;;;;;;;11.98;7.82;;;;;;;22.49;60.97;99724.69;6015096;28;20041;-67
2022/08/15 06:45:23;;;;;;;11.35;7.43;;;;;;;22.57;60.79;99734.25;6008446;28;20142;-65
2022/08/15 06:48:20;;;;;;;10.90;7.00;;;;;;;22.52;61.18;99745.81;6016690;28;20038;-66
2022/08/15 06:51:17;;;;;;;9.75;7.30;;;;;;;22.63;60.73;99743.25;6014149;28;20030;-65
2022/08/15 06:54:26;;;;;;;12.68;6.90;;;;;;;22.60;60.91;99741.06;6023965;28;20026;-66
2022/08/15 06:57:45;;;;;;;16.13;7.78;;;;;;;22.57;61.40;99734.25;6023108;28;20034;-65
2022/08/15 07:00:51;;;;;;;;;;;;;;;22.68;61.18;99737.97;6009100;28;20387;-67
2022/08/15 07:03:47;;;;;;;11.32;6.78;;;;;;;22.74;61.17;99728.88;6013538;28;20410;-66
2022/08/15 07:06:49;;;;;;;11.43;6.93;;;;;;;22.85;61.17;99719.81;6024956;28;20036;-65
2022/08/15 07:10:04;;;;;;;14.52;7.50;;;;;;;22.92;61.26;99733.97;6019239;28;20050;-65
2022/08/15 07:13:12;;;;;;;11.95;7.25;;;;;;;22.76;61.33;99718.59;6023084;28;20437;-64
2022/08/15 07:16:19;;;;;;;15.27;7.35;;;;;;;22.78;61.26;99721.88;6013280;28;20368;-65
2022/08/15 07:19:14;;;;;;;9.98;7.13;;;;;;;23.02;60.80;99707.03;6015784;28;20043;-65
2022/08/15 07:22:11;;;;;;;13.77;8.02;;;;;;;23.17;60.15;99709.94;6017424;28;20041;-65
2022/08/15 07:25:10;;;;;;;14.10;8.02;;;;;;;23.38;59.63;99706.44;6017141;28;20038;-66
2022/08/15 07:28:06;;;;;;;13.40;7.85;;;;;;;23.62;58.96;99715.88;6023055;28;20455;-65
2022/08/15 07:31:13;;;;;;;11.43;7.82;;;;;;;23.70;58.14;99704.59;6017069;28;20516;-65
2022/08/15 07:34:21;;;;;;;14.05;8.27;;;;;;;23.57;58.99;99715.84;6035903;28;20258;-64
2022/08/15 07:37:17;;;;;;;12.07;7.57;;;;;;;23.56;58.85;99722.31;6022879;28;20042;-64
2022/08/15 07:40:13;;;;;;;12.10;8.02;;;;;;;23.61;58.91;99722.41;6018503;28;20031;-65
2022/08/15 07:43:32;;;;;;;13.00;7.68;;;;;;;23.87;58.36;99725.34;6015672;28;20048;-65
2022/08/15 07:46:39;;;;;;;13.45;8.45;;;;;;;23.78;58.34;99716.06;6017602;28;20030;-65
2022/08/15 07:49:37;;;;;;;11.57;8.13;;;;;;;24.23;57.65;99724.59;6015987;28;20026;-65
2022/08/15 07:52:33;;;;;;;10.55;7.40;;;;;;;24.44;57.07;99739.94;6015119;28;20109;-65
2022/08/15 07:55:29;;;;;;;13.13;8.70;;;;;;;24.41;56.88;99726.06;6019250;28;20031;-64
2022/08/15 07:58:24;;;;;;;15.73;8.30;;;;;;;24.60;56.45;99730.81;6017520;28;20526;-64
2022/08/15 08:01:30;;;;;;;12.30;7.87;;;;;;;24.90;55.94;99734.81;6021812;28;20030;-65
2022/08/15 08:04:27;;;;;;;;;;;;;;;25.23;54.42;99729.00;6014331;28;20128;-66
2022/08/15 08:07:51;;;;;;;14.82;8.15;;;;;;;25.31;54.30;99723.06;6020791;28;19914;-65
2022/08/15 08:10:50;;;;;;;10.32;8.02;;;;;;;25.13;55.21;99712.69;6019267;28;20130;-65
2022/08/15 08:14:01;;;;;;;12.50;8.30;;;;;;;25.43;53.72;99712.81;6004081;28;20046;-66
2022/08/15 08:17:13;;;;;;;10.88;7.85;;;;;;;25.73;53.02;99712.91;6036944;28;20093;-64
2022/08/15 08:20:30;;;;;;;10.52;7.80;;;;;;;26.19;52.08;99710.22;6016241;28;20374;-65
2022/08/15 08:23:37;;;;;;;10.65;8.15;;;;;;;26.18;51.65;99714.03;6014894;28;20100;-65
2022/08/15 08:26:50;;;;;;;9.90;7.43;;;;;;;26.43;51.46;99716.72;6016299;28;20049;-65
2022/08/15 08:30:03;;;;;;;10.73;7.88;;;;;;;26.57;50.37;99717.81;6028359;28;20095;-66
2022/08/15 08:33:08;;;;;;;11.80;8.07;;;;;;;26.77;51.23;99709.59;6016337;28;20035;-64
2022/08/15 08:36:21;;;;;;;11.85;8.60;;;;;;;27.47;48.25;99702.28;6020156;28;20458;-65
2022/08/15 08:39:30;;;;;;;11.18;8.45;;;;;;;28.21;46.54;99711.00;6019769;28;20046;-64
2022/08/15 08:42:28;;;;;;;11.15;7.40;;;;;;;28.49;45.92;99705.84;6014891;28;20201;-64
2022/08/15 08:45:42;;;;;;;12.15;7.57;;;;;;;28.51;46.91;99709.13;6022140;28;20040;-66
2022/08/15 08:48:47;;;;;;;17.10;8.23;;;;;;;28.32;45.80;99711.72;6024474;28;20474;-65
2022/08/15 08:51:49;;;;;;;;;;;;;;;28.60;45.37;99713.66;6016241;28;20057;-66
2022/08/15 08:55:04;;;;;;;11.32;8.18;;;;;;;28.63;45.17;99696.75;6016290;28;20636;-64
2022/08/15 08:58:04;;;;;;;11.73;7.80;;;;;;;28.69;45.72;99705.69;6022120;28;20136;-65
2022/08/15 09:00:59;;;;;;;10.70;7.78;;;;;;;28.78;44.59;99703.97;6019549;28;20035;-63
2022/08/15 09:04:03;;;;;;;12.07;7.47;;;;;;;28.63;44.85;99685.00;6012762;28;20039;-65
2022/08/15 09:07:02;;;;;;;10.13;7.53;;;;;;;29.23;43.08;99700.69;6022320;28;20022;-65
2022/08/15 09:10:00;;;;;;;9.57;7.85;;;;;;;29.37;43.31;99689.84;6019520;28;20474;-66
2022/08/15 09:16:15;;;;;;;12.65;7.63;;;;;;;29.08;43.50;99692.66;6024324;28;20034;-65
2022/08/15 09:19:23;;;;;;;10.05;7.65;;;;;;;29.47;42.80;99690.53;6036372;28;20038;-65
2022/08/15 09:22:19;;;;;;;11.55;7.07;;;;;;;29.77;41.71;99677.50;6017117;28;20052;-65
2022/08/15 09:25:15;;;;;;;9.50;7.18;;;;;;;30.14;41.63;99682.91;6020711;28;20473;-66
2022/08/15 09:28:20;;;;;;;12.55;6.82;;;;;;;30.59;39.86;99673.94;6023596;28;20090;-66
2022/08/15 09:31:22;;;;;;;11.40;7.15;;;;;;;30.54;39.93;99670.47;6019079;28;20038;-64
2022/08/15 09:34:48;;;;;;;9.77;7.22;;;;;;;30.71;38.85;99680.84;6019824;28;20042;-66
2022/08/15 09:38:02;;;;;;;11.00;6.65;;;;;;;30.66;39.29;99674.34;6024526;28;20096;-65
2022/08/15 09:41:12;;;;;;;11.60;6.63;;;;;;;30.64;38.47;99682.03;6024183;28;20030;-65
2022/08/15 09:44:35;;;;;;;8.05;6.45;;;;;;;30.74;38.46;99670.06;6010272;28;20034;-65
2022/08/15 09:47:49;;;;;;;9.82;6.85;;;;;;;30.68;38.56;99674.84;6030746;28;20030;-65
2022/08/15 09:51:02;;;;;;;8.57;6.32;;;;;;;30.65;38.50;99667.25;6014838;28;20381;-66
2022/08/15 09:54:21;;;;;;;11.38;6.57;;;;;;;30.17;39.33;99660.44;6012991;28;20034;-65
2022/08/15 09:57:29;;;;;;;9.82;6.72;;;;;;;30.92;38.11;99658.25;6020521;28;20026;-65
2022/08/15 10:00:29;;;;;;;10.68;6.28;;;;;;;30.78;37.13;99670.28;6002837;28;20042;-65
2022/08/15 10:03:45;;;;;;;9.60;6.38;;;;;;;30.13;38.27;99659.44;6036632;28;20766;-65
2022/08/15 10:07:04;;;;;;;12.02;6.43;;;;;;;30.70;38.06;99662.78;6012275;28;20054;-65
2022/08/15 10:09:59;;;;;;;9.32;6.15;;;;;;;30.70;37.16;99662.78;6024785;28;20026;-65
2022/08/15 10:13:06;;;;;;;12.87;6.77;;;;;;;30.64;37.67;99654.66;6021098;28;20478;-66
2022/08/15 10:16:01;;;;;;;8.88;5.57;;;;;;;30.60;38.13;99648.16;6024043;28;20042;-65
2022/08/15 10:18:56;;;;;;;8.83;6.10;;;;;;;30.73;36.81;99662.16;6023569;28;20425;-64
2022/08/15 10:21:55;;;;;;;9.82;5.80;;;;;;;29.70;39.32;99655.19;6020794;28;20285;-65
2022/08/15 10:25:15;;;;;;;10.75;6.60;;;;;;;29.35;39.87;99659.28;6014268;28;20570;-65
2022/08/15 10:28:11;;;;;;;9.45;6.35;;;;;;;29.06;41.01;99656.63;6022878;28;20041;-66
2022/08/15 10:31:09;;;;;;;11.93;7.85;;;;;;;28.99;41.14;99661.66;6020179;28;20485;-65
2022/08/15 10:34:08;;;;;;;9.68;5.95;;;;;;;29.25;40.19;99649.31;6023054;28;20041;-65
2022/08/15 10:37:23;;;;;;;11.60;6.80;;;;;;;29.03;40.77;99659.13;6019152;28;21241;-65
2022/08/15 10:40:56;;;;;;;12.85;6.43;;;;;;;29.42;40.28;99652.34;6011552;28;20089;-65
2022/08/15 10:44:22;;;;;;;8.25;5.85;;;;;;;29.33;39.96;99645.91;6013309;28;20027;-65
2022/08/15 10:48:02;;;;;;;12.18;6.70;;;;;;;29.93;38.76;99637.88;6019582;28;20058;-64
2022/08/15 10:51:01;;;;;;;10.20;6.20;;;;;;;29.85;38.37;99638.56;6024942;28;20438;-65
2022/08/15 10:54:13;;;;;;;10.23;6.55;;;;;;;29.78;38.85;99632.66;6014491;28;20030;-65
2022/08/15 10:57:09;;;;;;;13.25;6.63;;;;;;;29.95;37.36;99624.75;6019314;28;20026;-65
2022/08/15 11:00:06;;;;;;;9.70;7.20;;;;;;;30.23;37.71;99623.66;6021050;28;20054;-66
2022/08/15 11:03:07;;;;;;;8.93;6.20;;;;;;;31.15;36.59;99623.47;6022754;28;20034;-65
2022/08/15 11:06:06;;;;;;;10.57;5.75;;;;;;;31.83;35.20;99625.22;6014398;28;20031;-65
2022/08/15 11:09:08;;;;;;;;;;;;;;;31.58;35.35;99629.41;6018984;28;20026;-65
2022/08/15 11:12:05;;;;;;;9.23;6.35;;;;;;;31.25;35.41;99610.38;6021042;28;20322;-64
2022/08/15 11:15:07;;;;;;;8.70;6.25;;;;;;;32.45;34.14;99606.84;6021972;28;20517;-66
2022/08/15 11:18:04;;;;;;;12.02;6.47;;;;;;;32.71;32.55;99597.59;6040468;28;20054;-64
2022/08/15 11:21:17;;;;;;;8.63;6.45;;;;;;;32.69;32.37;99597.09;6014370;28;20108;-66
2022/08/15 11:24:12;;;;;;;9.27;5.70;;;;;;;32.39;33.30;99608.94;6018684;28;20035;-66
2022/08/15 11:27:15;;;;;;;11.93;5.87;;;;;;;31.68;33.32;99610.75;6018777;28;20037;-65
2022/08/15 11:30:21;;;;;;;9.10;5.32;;;;;;;32.14;33.69;99598.63;6017646;28;20768;-65
2022/08/15 11:33:19;;;;;;;9.52;5.68;;;;;;;32.66;31.31;99585.94;6019093;28;20046;-64
2022/08/15 11:36:14;;;;;;;8.38;5.45;;;;;;;33.46;30.81;99588.94;6015681;28;20542;-65
2022/08/15 11:39:14;;;;;;;11.83;6.13;;;;;;;33.91;30.04;99570.16;6023151;28;20026;-65
2022/08/15 11:42:17;;;;;;;8.68;5.30;;;;;;;32.97;30.37;99578.38;6019559;28;20030;-65
2022/08/15 11:45:18;;;;;;;7.28;5.07;;;;;;;33.06;30.06;99583.94;6015587;28;20023;-65
2022/08/15 11:48:26;;;;;;;8.20;5.65;;;;;;;32.75;30.88;99571.09;6017580;28;20045;-66
2022/08/15 11:51:26;;;;;;;7.28;5.05;;;;;;;32.63;31.00;99584.66;6005081;28;20536;-66
2022/08/15 11:54:23;;;;;;;7.90;5.20;;;;;;;32.02;31.62;99579.19;6014312;28;20034;-65
2022/08/15 11:57:21;;;;;;;8.48;5.72;;;;;;;32.69;30.87;99569.63;6021091;28;20026;-65
2022/08/15 12:00:42;;;;;;;10.52;5.47;;;;;;;32.91;31.03;99585.19;6018410;28;20084;-65
2022/08/15 12:03:38;;;;;;;6.45;5.57;;;;;;;33.80;29.46;99582.63;6017985;28;20030;-66
2022/08/15 12:06:36;;;;;;;13.03;6.77;;;;;;;33.97;31.79;99588.06;6019250;28;20038;-65
2022/08/15 12:09:32;;;;;;;12.65;7.55;;;;;;;33.23;33.97;99571.03;6016882;28;20015;-65
2022/08/15 12:12:32;;;;;;;11.93;5.63;;;;;;;31.98;33.12;99584.47;6020528;28;20034;-65
2022/08/15 12:15:33;;;;;;;9.05;5.63;;;;;;;31.79;34.12;99575.66;6013862;28;20430;-65
2022/08/15 12:18:33;;;;;;;6.80;5.35;;;;;;;30.83;35.13;99574.31;6017782;28;20150;-66
2022/08/15 12:21:30;;;;;;;11.55;6.28;;;;;;;30.33;38.47;99574.22;6017730;28;20463;-66
2022/08/15 12:24:33;;;;;;;8.52;6.20;;;;;;;30.26;38.21;99565.63;6020441;28;20057;-66
2022/08/15 12:27:28;;;;;;;11.18;6.90;;;;;;;29.77;38.25;99573.59;6011670;28;20117;-65
2022/08/15 12:30:23;;;;;;;7.10;5.50;;;;;;;29.44;38.68;99568.13;6018907;28;20081;-65
2022/08/15 12:33:18;;;;;;;15.23;5.73;;;;;;;29.17;37.90;99578.91;6012898;28;20157;-65
2022/08/15 12:36:14;;;;;;;7.40;5.03;;;;;;;29.00;38.06;99581.34;6015076;28;20042;-65
2022/08/15 12:39:11;;;;;;;8.37;4.57;;;;;;;28.84;38.01;99577.19;6021256;28;20034;-64
2022/08/15 12:42:08;;;;;;;6.60;4.82;;;;;;;28.70;38.71;99598.94;6017654;28;20034;-65
2022/08/15 12:45:14;;;;;;;9.52;4.82;;;;;;;28.64;38.83;99604.75;6016130;28;20077;-65
2022/08/15 12:48:21;;;;;;;8.30;5.03;;;;;;;28.40;39.65;99601.19;6014998;28;20097;-65
2022/08/15 12:51:17;;;;;;;9.13;4.78;;;;;;;28.23;39.78;99599.75;6018217;28;20037;-65
2022/08/15 12:54:12;;;;;;;8.70;4.95;;;;;;;28.42;39.33;99618.09;6022164;28;20054;-65
2022/08/15 12:57:08;;;;;;;7.22;5.10;;;;;;;28.43;41.16;99642.34;6017342;28;20038;-66
2022/08/15 13:00:04;;;;;;;10.97;5.47;;;;;;;27.67;46.33;99628.56;6020307;28;20037;-65
2022/08/15 13:03:15;;;;;;;13.68;5.72;;;;;;;27.14;48.78;99636.53;6018132;28;20034;-65
2022/08/15 13:06:15;;;;;;;9.18;5.95;;;;;;;26.97;48.73;99630.63;6021127;28;20053;-65
2022/08/15 13:09:10;;;;;;;9.05;6.07;;;;;;;26.76;47.63;99653.56;6020318;28;20034;-64
2022/08/15 13:12:05;;;;;;;7.90;5.47;;;;;;;27.28;43.96;99652.25;6018594;28;20803;-66
2022/08/15 13:15:01;;;;;;;8.85;5.10;;;;;;;27.24;46.61;99662.06;6020646;28;20660;-65
2022/08/15 13:17:57;;;;;;;6.77;4.37;;;;;;;27.02;45.80;99671.44;6015326;28;20100;-64
2022/08/15 13:24:06;;;;;;;6.85;4.30;;;;;;;26.78;45.38;99681.31;6023048;28;20538;-65
2022/08/15 13:27:02;;;;;;;10.83;5.17;;;;;;;26.06;53.89;99689.84;6024864;28;20034;-65
2022/08/15 13:29:58;;;;;;;13.10;5.32;;;;;;;24.71;62.53;99701.88;6024917;28;20403;-64
2022/08/15 13:32:53;;;;;;;14.13;7.60;;;;;;;23.03;71.54;99685.16;6020248;28;20459;-63
2022/08/15 13:35:49;;;;;;;13.57;8.23;;;;;;;22.12;78.24;99693.03;6026673;28;20041;-63
2022/08/15 13:38:47;;;;;;;12.63;7.63;;;;;;;21.50;81.88;99681.44;6022658;28;20041;-64
2022/08/15 13:41:44;;;;;;;14.82;8.50;;;;;;;21.56;84.80;99685.81;6021005;28;20043;-65
2022/08/15 13:44:40;;;;;;;13.15;8.45;;;;;;;21.36;86.53;99691.69;6023585;28;20096;-64
2022/08/15 13:47:36;;;;;;;16.30;9.30;;;;;;;21.35;88.56;99695.44;6024850;28;20705;-64
2022/08/15 13:50:31;;;;;;;15.15;10.00;;;;;;;21.40;91.99;99681.22;6023704;28;20485;-64
2022/08/15 13:53:28;;;;;;;14.82;8.68;;;;;;;21.49;90.67;99690.56;6024633;28;20034;-64
2022/08/15 13:56:24;;;;;;;14.65;8.80;;;;;;;21.65;89.60;99689.78;6026776;28;20043;-63
2022/08/15 13:59:19;;;;;;;12.57;8.02;;;;;;;21.68;88.00;99706.31;6023527;28;20459;-64
2022/08/15 14:02:15;;;;;;;13.50;7.80;;;;;;;21.87;86.45;99723.97;6025022;28;20065;-65
2022/08/15 14:05:16;;;;;;;12.10;8.18;;;;;;;21.90;85.52;99709.16;6026447;28;20037;-65
2022/08/15 14:08:11;;;;;;;11.30;7.22;;;;;;;21.93;86.25;99709.47;6019614;28;20846;-64
2022/08/15 14:11:07;;;;;;;12.02;7.07;;;;;;;21.89;84.91;99713.72;6022109;28;20062;-65
2022/08/15 14:14:05;;;;;;;11.33;7.20;;;;;;;21.89;85.03;99696.72;6022401;28;20038;-65
2022/08/15 14:17:00;;;;;;;11.05;6.63;;;;;;;21.69;84.49;99701.72;6017290;28;20834;-65